createdAt,value
2019-05-21T04:33:22.921Z,163.3
2019-05-21T04:34:26.889Z,151.2
2019-05-21T04:35:28.758Z,160
2019-05-21T04:36:30.627Z,149.1
2019-05-21T04:37:32.494Z,162.2
2019-05-21T04:38:34.368Z,139.9
2019-05-21T04:39:36.236Z,120.8
2019-05-21T04:40:38.103Z,116.9
2019-05-21T04:41:39.972Z,161.2
2019-05-21T04:42:41.877Z,169.6
2019-05-21T04:43:43.756Z,172.5
2019-05-21T04:44:45.637Z,151.8
2019-05-21T04:45:47.507Z,166.9
2019-05-21T04:46:49.384Z,145.8
2019-05-21T04:47:50.974Z,179.9
2019-05-21T04:48:52.842Z,156.6
2019-05-21T04:49:54.716Z,139.3
2019-05-21T04:50:56.587Z,138.7
2019-05-21T04:51:58.463Z,133.8
2019-05-21T04:53:00.332Z,152.6
2019-05-21T04:54:01.927Z,152.7
2019-05-21T04:55:03.799Z,142.2
2019-05-21T04:56:05.673Z,154.9
2019-05-21T04:57:07.549Z,170.9
2019-05-21T04:58:09.425Z,157.4
2019-05-21T04:59:11.544Z,171.7
2019-05-21T05:00:13.140Z,189.2
2019-05-21T05:01:15.020Z,182.7
2019-05-21T05:02:16.894Z,182.6
2019-05-21T05:03:18.768Z,172
2019-05-21T05:04:23.523Z,166.6
2019-05-21T05:05:25.118Z,189.3
2019-05-21T05:06:26.700Z,157.8
2019-05-21T05:07:30.065Z,170.1
2019-05-21T05:08:31.941Z,169.7
2019-05-21T05:09:33.826Z,174
2019-05-21T05:10:35.697Z,182.8
2019-05-21T05:11:37.569Z,178.7
2019-05-21T05:12:39.175Z,163.2
2019-05-21T05:13:41.042Z,167.8
2019-05-21T05:14:42.912Z,182
2019-05-21T05:15:44.787Z,184.7
2019-05-21T05:16:46.651Z,179.2
2019-05-21T05:17:48.520Z,168.1
2019-05-21T05:18:50.394Z,172.6
2019-05-21T05:19:52.264Z,166.1
2019-05-21T05:20:54.134Z,206
2019-05-21T05:21:56.007Z,165.1
2019-05-21T05:22:57.878Z,156
2019-05-21T05:23:59.772Z,145.8
2019-05-21T05:25:01.783Z,140.4
2019-05-21T05:26:03.706Z,133.8
2019-05-21T05:27:05.876Z,126.6
2019-05-21T05:28:07.479Z,141.2
2019-05-21T05:29:09.078Z,154.8
2019-05-21T05:30:10.947Z,147.4
2019-05-21T05:31:16.674Z,139.3
2019-05-21T05:32:18.547Z,143.4
2019-05-21T05:33:20.430Z,152.5
2019-05-21T05:34:22.291Z,164.7
2019-05-21T05:35:24.163Z,145.3
2019-05-21T05:36:25.755Z,157.1
2019-05-21T05:37:49.256Z,154.1
2019-05-21T05:38:51.148Z,160.3
2019-05-21T05:39:52.741Z,153.7
2019-05-21T05:40:54.612Z,167
2019-05-21T05:41:56.483Z,173.9
2019-05-21T05:42:58.078Z,147.9
2019-05-21T05:43:59.677Z,145.5
2019-05-21T05:45:01.586Z,151.2
2019-05-21T05:46:03.455Z,147
2019-05-21T05:47:05.334Z,162.8
2019-05-21T05:48:06.923Z,167
2019-05-21T05:49:08.796Z,175.4
2019-05-21T05:50:10.384Z,172.4
2019-05-21T05:51:12.256Z,163.5
2019-05-21T05:52:13.850Z,156.5
2019-05-21T05:53:15.430Z,155.9
2019-05-21T05:54:17.299Z,146.9
2019-05-21T05:55:19.172Z,145.9
2019-05-21T05:56:21.041Z,142.2
2019-05-21T05:57:22.913Z,131.3
2019-05-21T05:58:24.767Z,151.7
2019-05-21T05:59:26.649Z,145.6
2019-05-21T06:00:28.519Z,163.6
2019-05-21T06:01:30.421Z,158.5
2019-05-21T06:02:32.293Z,168.8
2019-05-21T06:03:34.171Z,176.6
2019-05-21T06:04:36.037Z,171.7
2019-05-21T06:05:37.912Z,155.9
2019-05-21T06:06:39.826Z,150.8
2019-05-21T06:07:41.749Z,127
2019-05-21T06:08:43.605Z,144.8
2019-05-21T06:09:45.487Z,158
2019-05-21T06:10:47.358Z,142.1
2019-05-21T06:11:49.227Z,146.9
2019-05-21T06:12:50.900Z,153.8
2019-05-21T06:13:52.800Z,136.6
2019-05-21T06:14:54.444Z,148.2
2019-05-21T06:15:56.308Z,149.1
2019-05-21T06:16:58.180Z,134.3
2019-05-21T06:18:00.062Z,140.3
2019-05-21T06:19:01.927Z,154.8
2019-05-21T06:20:03.797Z,150.9
2019-05-21T06:21:05.673Z,154.4
2019-05-21T06:22:07.543Z,142.9
2019-05-21T06:23:09.413Z,122.8
2019-05-21T06:24:14.886Z,139.9
2019-05-21T06:25:16.490Z,129
2019-05-21T06:26:18.359Z,129.8
2019-05-21T06:27:20.238Z,148.4
2019-05-21T06:28:21.832Z,140.2
2019-05-21T06:29:23.703Z,118.2
2019-05-21T06:30:25.299Z,114.5
2019-05-21T06:31:27.172Z,128.7
2019-05-21T06:32:29.047Z,127.7
2019-05-21T06:33:30.916Z,138.5
2019-05-21T06:34:32.787Z,130.9
2019-05-21T06:35:34.660Z,134
2019-05-21T06:36:36.532Z,127.4
2019-05-21T06:37:38.538Z,129.8
2019-05-21T06:38:40.457Z,135.3
2019-05-21T06:39:42.327Z,113.4
2019-05-21T06:40:44.199Z,97.7
2019-05-21T06:41:46.075Z,108.3
2019-05-21T06:42:47.953Z,129.7
2019-05-21T06:43:49.821Z,128.8
2019-05-21T06:44:51.466Z,119.4
2019-05-21T06:45:53.345Z,116
2019-05-21T06:46:54.949Z,113.2
2019-05-21T06:47:56.819Z,111.6
2019-05-21T06:48:58.417Z,104.7
2019-05-21T06:49:59.753Z,105.4
2019-05-21T06:51:01.628Z,112
2019-05-21T06:52:03.494Z,114
2019-05-21T06:53:05.379Z,104.8
2019-05-21T06:54:06.977Z,96.5
2019-05-21T06:55:08.568Z,97.9
2019-05-21T06:56:10.441Z,101.2
2019-05-21T06:57:12.073Z,101.6
2019-05-21T06:58:13.943Z,123.2
2019-05-21T06:59:15.816Z,105.9
2019-05-21T07:00:17.411Z,92.3
2019-05-21T07:01:29.706Z,101.8
2019-05-21T07:02:31.741Z,91.8
2019-05-21T07:03:33.626Z,93.9
2019-05-21T07:04:35.482Z,97.7
2019-05-21T07:05:37.355Z,100.1
2019-05-21T07:06:39.229Z,100.6
2019-05-21T07:07:41.100Z,106.2
2019-05-21T07:08:42.978Z,100.8
2019-05-21T07:09:44.858Z,89.5
2019-05-21T07:10:46.740Z,96.5
2019-05-21T07:11:50.632Z,99.7
2019-05-21T07:12:52.504Z,86.2
2019-05-21T07:13:54.425Z,97
2019-05-21T07:14:56.290Z,88.4
2019-05-21T07:15:58.169Z,80.6
2019-05-21T07:17:00.041Z,70.2
2019-05-21T07:18:01.921Z,82.4
2019-05-21T07:19:03.803Z,77.6
2019-05-21T07:20:05.697Z,84.3
2019-05-21T07:21:07.592Z,83.1
2019-05-21T07:22:14.617Z,70.8
2019-05-21T07:23:16.478Z,65
2019-05-21T07:24:18.354Z,60.2
2019-05-21T07:25:20.238Z,70.6
2019-05-21T07:26:22.261Z,59.4
2019-05-21T07:27:24.131Z,66.3
2019-05-21T07:28:26.011Z,69.8
2019-05-21T07:29:27.871Z,69.1
2019-05-21T07:30:29.743Z,63.4
2019-05-21T07:31:31.613Z,63.9
2019-05-21T07:32:33.221Z,60.9
2019-05-21T07:33:35.070Z,60.5
2019-05-21T07:34:36.951Z,65.6
2019-05-21T07:35:38.815Z,52.2
2019-05-21T07:36:40.685Z,63.8
2019-05-21T07:37:42.277Z,49.9
2019-05-21T07:38:55.440Z,52.3
2019-05-21T07:39:57.008Z,53.5
2019-05-21T07:40:58.746Z,55.3
2019-05-21T07:42:00.392Z,60
2019-05-21T07:43:01.985Z,65
2019-05-21T07:44:03.851Z,52.9
2019-05-21T07:45:05.174Z,50.8
2019-05-21T07:46:07.024Z,55.7
2019-05-21T07:47:08.895Z,55.7
2019-05-21T07:48:10.768Z,49.7
2019-05-21T07:49:12.643Z,57.5
2019-05-21T07:50:14.513Z,52
2019-05-21T07:51:16.388Z,48.9
2019-05-21T07:52:18.264Z,54.7
2019-05-21T07:53:20.129Z,52.7
2019-05-21T07:54:22.007Z,54.8
2019-05-21T07:55:23.872Z,49.9
2019-05-21T07:56:25.457Z,55.4
2019-05-21T07:57:27.334Z,52.5
2019-05-21T07:58:29.206Z,60.1
2019-05-21T07:59:31.076Z,62.1
2019-05-21T08:00:32.945Z,64.3
2019-05-21T08:01:34.818Z,62.3
2019-05-21T08:02:36.694Z,54
2019-05-21T08:03:38.560Z,52.7
2019-05-21T08:04:40.430Z,52.4
2019-05-21T08:05:42.308Z,44.8
2019-05-21T08:06:44.718Z,49.3
2019-05-21T08:07:46.591Z,60.2
2019-05-21T08:08:48.466Z,54.3
2019-05-21T08:09:50.347Z,57
2019-05-21T08:10:52.262Z,63.7
2019-05-21T08:11:53.829Z,56.9
2019-05-21T08:12:55.718Z,67.4
2019-05-21T08:13:57.314Z,60.5
2019-05-21T08:14:59.193Z,47.1
2019-05-21T08:16:01.064Z,47.1
2019-05-21T08:17:02.646Z,47.9
2019-05-21T08:18:04.515Z,44.9
2019-05-21T08:19:06.382Z,42.4
2019-05-21T08:20:12.095Z,42.7
2019-05-21T08:21:13.395Z,41.8
2019-05-21T08:22:15.264Z,43.2
2019-05-21T08:23:16.581Z,51.3
2019-05-21T08:24:18.452Z,44
2019-05-21T08:25:20.323Z,44.3
2019-05-21T08:26:21.652Z,44.1
2019-05-21T08:27:23.235Z,43.8
2019-05-21T08:28:25.104Z,43.9
2019-05-21T08:29:26.987Z,42.6
2019-05-21T08:30:28.848Z,42.8
2019-05-21T08:31:30.720Z,55
2019-05-21T08:32:32.598Z,53.6
2019-05-21T08:33:34.482Z,43.7
2019-05-21T08:34:36.359Z,43.7
2019-05-21T08:35:38.240Z,43.4
2019-05-21T08:36:40.146Z,39.7
2019-05-21T08:37:42.016Z,42
2019-05-21T08:38:43.888Z,41.4
2019-05-21T08:39:45.760Z,41.6
2019-05-21T08:40:47.634Z,40.6
2019-05-21T08:41:49.226Z,40.6
2019-05-21T08:42:51.102Z,38.6
2019-05-21T08:43:52.745Z,42.9
2019-05-21T08:44:54.617Z,42.9
2019-05-21T08:45:56.214Z,43.7
2019-05-21T08:46:57.796Z,42.4
2019-05-21T08:47:59.667Z,45.9
2019-05-21T08:49:01.541Z,40.9
2019-05-21T08:50:03.406Z,43.9
2019-05-21T08:51:05.317Z,41.2
2019-05-21T08:52:06.899Z,52.9
2019-05-21T08:53:08.770Z,60.9
2019-05-21T08:54:10.641Z,52.7
2019-05-21T08:55:12.514Z,49.4
2019-05-21T08:56:14.384Z,43.4
2019-05-21T08:57:16.259Z,45
2019-05-21T08:58:18.149Z,55.6
2019-05-21T08:59:20.014Z,43.4
2019-05-21T09:00:21.881Z,46.1
2019-05-21T09:01:23.501Z,50.4
2019-05-21T09:02:25.377Z,47.6
2019-05-21T09:03:27.250Z,48.4
2019-05-21T09:06:44.915Z,55.9
2019-05-21T09:07:54.180Z,45.1
2019-05-21T09:08:55.523Z,42
2019-05-21T09:09:57.125Z,45.7
2019-05-21T09:10:58.988Z,54.2
2019-05-21T09:12:00.920Z,47.9
2019-05-21T09:13:02.794Z,50.1
2019-05-21T09:14:04.741Z,54.3
2019-05-21T09:15:06.328Z,52.7
2019-05-21T09:16:07.924Z,51.1
2019-05-21T09:17:09.794Z,52
2019-05-21T09:18:11.666Z,48.6
2019-05-21T09:19:13.244Z,52.1
2019-05-21T09:20:15.149Z,51.1
2019-05-21T09:21:17.023Z,54.1
2019-05-21T09:22:18.931Z,61.6
2019-05-21T09:23:20.781Z,53.9
2019-05-21T09:24:22.650Z,51.8
2019-05-21T09:25:24.240Z,46.3
2019-05-21T09:26:25.830Z,45.6
2019-05-21T09:27:27.706Z,44
2019-05-21T09:28:29.576Z,56.8
2019-05-21T09:29:31.185Z,53.4
2019-05-21T09:30:33.056Z,58.2
2019-05-21T09:31:34.922Z,55.7
2019-05-21T09:32:36.545Z,47.5
2019-05-21T09:33:38.129Z,41.8
2019-05-21T09:34:50.289Z,48.9
2019-05-21T09:35:51.877Z,51.6
2019-05-21T09:36:53.756Z,44.2
2019-05-21T09:37:55.627Z,46
2019-05-21T09:38:57.229Z,45.9
2019-05-21T09:39:59.100Z,46.5
2019-05-21T09:41:00.983Z,45.9
2019-05-21T09:42:03.007Z,45.5
2019-05-21T09:43:04.878Z,41.8
2019-05-21T09:44:06.791Z,41.9
2019-05-21T09:45:08.766Z,46.4
2019-05-21T09:46:10.364Z,49.4
2019-05-21T09:47:12.242Z,44.9
2019-05-21T09:48:14.167Z,41.7
2019-05-21T09:49:16.037Z,46.2
2019-05-21T09:50:17.907Z,48.6
2019-05-21T09:51:21.754Z,44.6
2019-05-21T09:52:23.346Z,51.7
2019-05-21T09:53:25.216Z,45.4
2019-05-21T09:54:27.091Z,50.9
2019-05-21T09:55:29.002Z,50
2019-05-21T09:56:30.884Z,50.6
2019-05-21T09:57:32.762Z,42.5
2019-05-21T09:58:34.668Z,45.2
2019-05-21T09:59:36.561Z,47.6
2019-05-21T10:00:38.575Z,43.1
2019-05-21T10:01:40.446Z,45.8
2019-05-21T10:02:42.316Z,46.8
2019-05-21T10:03:44.710Z,52.1
2019-05-21T10:04:46.624Z,55
2019-05-21T10:05:48.498Z,56.1
2019-05-21T10:06:50.372Z,44.8
2019-05-21T10:07:52.248Z,43
2019-05-21T10:08:54.124Z,48
2019-05-21T10:09:55.730Z,46.3
2019-05-21T10:10:57.335Z,45.8
2019-05-21T10:11:59.267Z,46.8
2019-05-21T10:13:01.141Z,37.6
2019-05-21T10:14:03.069Z,44.7
2019-05-21T10:15:04.978Z,41.7
2019-05-21T10:16:06.897Z,43.3
2019-05-21T10:17:08.770Z,41.6
2019-05-21T10:18:10.641Z,33.9
2019-05-21T10:19:12.514Z,35.3
2019-05-21T10:20:14.107Z,37.1
2019-05-21T10:21:15.980Z,40.7
2019-05-21T10:22:17.854Z,39.6
2019-05-21T10:23:19.449Z,36.5
2019-05-21T10:24:21.322Z,39.9
2019-05-21T10:25:23.193Z,35.7
2019-05-21T10:26:25.062Z,34.3
2019-05-21T10:27:26.965Z,36.4
2019-05-21T10:28:28.842Z,36.2
2019-05-21T10:29:30.686Z,46
2019-05-21T10:30:32.582Z,43.8
2019-05-21T10:31:34.452Z,39.7
2019-05-21T10:32:36.326Z,42.9
2019-05-21T10:33:38.198Z,43.7
2019-05-21T10:34:40.069Z,39.3
2019-05-21T10:35:41.948Z,39.3
2019-05-21T10:36:43.809Z,35.2
2019-05-21T10:37:56.596Z,34
2019-05-21T10:38:58.480Z,35.8
2019-05-21T10:40:00.356Z,36.4
2019-05-21T10:41:02.333Z,39.8
2019-05-21T10:42:04.213Z,40.7
2019-05-21T10:43:06.078Z,36.1
2019-05-21T10:44:07.662Z,36.4
2019-05-21T10:45:09.258Z,37.7
2019-05-21T10:46:11.128Z,36.3
2019-05-21T10:47:17.638Z,38.2
2019-05-21T10:48:19.506Z,40.3
2019-05-21T10:49:21.481Z,38.3
2019-05-21T10:50:22.788Z,37.3
2019-05-21T10:51:24.656Z,42.8
2019-05-21T10:52:26.532Z,43
2019-05-21T10:53:28.459Z,48.5
2019-05-21T10:54:30.562Z,48.7
2019-05-21T10:55:32.436Z,46.7
2019-05-21T10:56:49.659Z,44.6
2019-05-21T10:57:51.531Z,44.7
2019-05-21T10:58:53.419Z,39.8
2019-05-21T10:59:55.325Z,44.4
2019-05-21T11:00:57.199Z,43.9
2019-05-21T11:01:59.072Z,41.5
2019-05-21T11:03:00.985Z,46.8
2019-05-21T11:04:02.857Z,42.2
2019-05-21T11:05:04.725Z,43.7
2019-05-21T11:06:11.892Z,41.2
2019-05-21T11:07:13.760Z,36.1
2019-05-21T11:08:26.037Z,38.7
2019-05-21T11:09:28.054Z,35.9
2019-05-21T11:10:29.922Z,36.9
2019-05-21T11:11:31.820Z,44.3
2019-05-21T11:12:33.402Z,40.8
2019-05-21T11:13:35.339Z,35
2019-05-21T11:14:36.924Z,34.4
2019-05-21T11:15:38.870Z,34
2019-05-21T11:16:40.741Z,33.2
2019-05-21T11:18:12.385Z,39
2019-05-21T11:19:14.275Z,33.7
2019-05-21T11:20:16.145Z,33.6
2019-05-21T11:21:17.780Z,39.8
2019-05-21T11:22:19.640Z,34
2019-05-21T11:23:21.518Z,34
2019-05-21T11:24:23.099Z,35.3
2019-05-21T11:25:24.970Z,35
2019-05-21T11:26:26.856Z,39.4
2019-05-21T11:27:28.725Z,39.2
2019-05-21T11:28:30.610Z,38.2
2019-05-21T11:29:32.480Z,37.8
2019-05-21T11:30:34.443Z,40.8
2019-05-21T11:31:36.031Z,38.9
2019-05-21T11:32:37.902Z,35.9
2019-05-21T11:33:39.778Z,34.8
2019-05-21T11:34:41.375Z,36.9
2019-05-21T11:35:43.259Z,34.7
2019-05-21T11:36:45.139Z,41.4
2019-05-21T11:37:49.453Z,35.6
2019-05-21T11:38:51.068Z,36.9
2019-05-21T11:39:52.935Z,37
2019-05-21T11:40:54.828Z,34.9
2019-05-21T11:41:56.691Z,35.2
2019-05-21T11:42:58.563Z,33.2
2019-05-21T11:44:00.436Z,35.6
2019-05-21T11:45:02.305Z,37.6
2019-05-21T11:46:04.768Z,35.7
2019-05-21T11:47:06.639Z,45
2019-05-21T11:48:08.528Z,39.6
2019-05-21T11:49:10.396Z,39.2
2019-05-21T11:50:12.266Z,36.7
2019-05-21T11:51:14.455Z,33.9
2019-05-21T11:52:16.328Z,35.2
2019-05-21T11:53:18.207Z,32.9
2019-05-21T11:54:20.082Z,32.6
2019-05-21T11:55:21.952Z,36.9
2019-05-21T11:56:23.552Z,35.8
2019-05-21T11:57:25.415Z,34.5
2019-05-21T11:58:27.287Z,35
2019-05-21T11:59:29.158Z,33.6
2019-05-21T12:00:31.045Z,33.4
2019-05-21T12:01:32.912Z,33.8
2019-05-21T12:02:34.787Z,35.4
2019-05-21T12:03:36.367Z,34.7
2019-05-21T12:04:38.241Z,32.4
2019-05-21T12:05:39.838Z,33.5
2019-05-21T12:06:41.736Z,31.4
2019-05-21T12:07:43.317Z,33.4
2019-05-21T12:08:58.467Z,30.9
2019-05-21T12:10:00.342Z,32.2
2019-05-21T12:11:02.224Z,33.4
2019-05-21T12:12:04.091Z,31.4
2019-05-21T12:13:05.960Z,31.1
2019-05-21T12:14:07.831Z,31
2019-05-21T12:15:09.572Z,29.5
2019-05-21T12:16:11.433Z,30.2
2019-05-21T12:17:13.333Z,29.2
2019-05-21T12:18:15.200Z,31.7
2019-05-21T12:19:17.077Z,32
2019-05-21T12:20:38.180Z,29.3
2019-05-21T12:21:40.039Z,29
2019-05-21T12:22:41.921Z,30.9
2019-05-21T12:23:43.966Z,31.2
2019-05-21T12:24:45.687Z,34.3
2019-05-21T12:25:47.010Z,30.3
2019-05-21T12:26:48.883Z,28.3
2019-05-21T12:27:50.752Z,30.3
2019-05-21T12:28:52.757Z,37.9
2019-05-21T12:29:54.627Z,28.7
2019-05-21T12:30:56.500Z,28.5
2019-05-21T12:31:58.374Z,30.1
2019-05-21T12:33:00.251Z,26.7
2019-05-21T12:34:02.117Z,27.7
2019-05-21T12:35:04.086Z,25
2019-05-21T12:36:05.958Z,28.3
2019-05-21T12:37:07.848Z,25.9
2019-05-21T12:38:09.723Z,27.6
2019-05-21T12:39:16.156Z,26.8
2019-05-21T12:40:18.029Z,28
2019-05-21T12:41:19.911Z,27.4
2019-05-21T12:42:21.785Z,27.4
2019-05-21T12:43:23.666Z,26.9
2019-05-21T12:44:25.553Z,28
2019-05-21T12:45:27.419Z,27.7
2019-05-21T12:46:29.282Z,28.1
2019-05-21T12:47:30.880Z,29
2019-05-21T12:48:32.752Z,29.7
2019-05-21T12:49:34.624Z,28.6
2019-05-21T12:50:36.494Z,27.3
2019-05-21T12:51:38.385Z,27.3
2019-05-21T12:52:40.295Z,27.7
2019-05-21T12:53:42.176Z,28.3
2019-05-21T12:54:44.049Z,26.6
2019-05-21T12:55:45.922Z,24.6
2019-05-21T12:56:47.793Z,24.2
2019-05-21T12:57:49.669Z,23.9
2019-05-21T12:58:51.538Z,25
2019-05-21T12:59:53.406Z,24.4
2019-05-21T13:00:55.276Z,23.5
2019-05-21T13:01:57.148Z,22.4
2019-05-21T13:02:59.018Z,22.2
2019-05-21T13:04:00.889Z,23.5
2019-05-21T13:05:02.761Z,22.8
2019-05-21T13:06:04.590Z,23.2
2019-05-21T13:07:06.174Z,23.5
2019-05-21T13:08:08.076Z,22.7
2019-05-21T13:09:09.481Z,21.3
2019-05-21T13:10:11.351Z,22.1
2019-05-21T13:11:13.221Z,21.4
2019-05-21T13:12:15.095Z,20.9
2019-05-21T13:13:16.965Z,21.2
2019-05-21T13:14:20.119Z,22
2019-05-21T13:15:21.991Z,21.6
2019-05-21T13:16:23.899Z,20.1
2019-05-21T13:17:25.771Z,19.9
2019-05-21T13:18:27.650Z,21
2019-05-21T13:19:29.547Z,20.6
2019-05-21T13:20:31.420Z,19.9
2019-05-21T13:21:33.358Z,21
2019-05-21T13:22:35.042Z,19.9
2019-05-21T13:23:36.904Z,19.2
2019-05-21T13:24:38.504Z,19.6
2019-05-21T13:25:40.399Z,18.6
2019-05-21T13:26:41.999Z,19.5
2019-05-21T13:27:43.902Z,19.5
2019-05-21T13:28:45.775Z,18.1
2019-05-21T13:29:47.498Z,17.6
2019-05-21T13:30:49.162Z,18.7
2019-05-21T13:31:51.171Z,18.2
2019-05-21T13:32:53.043Z,18.8
2019-05-21T13:33:54.637Z,19.3
2019-05-21T13:34:56.506Z,18.6
2019-05-21T13:35:58.393Z,17.7
2019-05-21T13:37:00.266Z,19.1
2019-05-21T13:38:02.238Z,17.5
2019-05-21T13:39:03.557Z,19.1
2019-05-21T13:40:05.428Z,17.9
2019-05-21T13:41:06.746Z,18.1
2019-05-21T13:42:08.421Z,18.3
2019-05-21T13:43:10.318Z,19
2019-05-21T13:44:12.165Z,19.1
2019-05-21T13:45:14.099Z,18.9
2019-05-21T13:46:16.039Z,17.7
2019-05-21T13:47:17.930Z,18.5
2019-05-21T13:48:19.807Z,20.1
2019-05-21T13:49:21.689Z,19.5
2019-05-21T13:50:23.628Z,18.9
2019-05-21T13:51:25.494Z,18.5
2019-05-21T13:52:27.363Z,19
2019-05-21T13:53:29.234Z,19.4
2019-05-21T13:54:31.111Z,20.6
2019-05-21T13:55:35.481Z,19.5
2019-05-21T13:56:37.359Z,19.2
2019-05-21T13:57:39.231Z,19.9
2019-05-21T13:58:41.097Z,19.3
2019-05-21T13:59:43.010Z,20.3
2019-05-21T14:00:44.879Z,19.5
2019-05-21T14:01:46.854Z,19.5
2019-05-21T14:02:48.713Z,20.3
2019-05-21T14:03:50.590Z,19.5
2019-05-21T14:04:52.483Z,19.7
2019-05-21T14:05:54.073Z,18.8
2019-05-21T14:06:56.675Z,18.6
2019-05-21T14:07:58.534Z,18.5
2019-05-21T14:09:00.487Z,19.3
2019-05-21T14:10:22.547Z,19.9
2019-05-21T14:11:24.132Z,19.4
2019-05-21T14:12:26.006Z,19.1
2019-05-21T14:13:27.879Z,19.4
2019-05-21T14:14:29.770Z,19.3
2019-05-21T14:15:31.644Z,19.1
2019-05-21T14:16:36.365Z,18.1
2019-05-21T14:17:38.227Z,18
2019-05-21T14:18:40.407Z,17.9
2019-05-21T14:19:42.023Z,17.6
2019-05-21T14:20:43.893Z,18.2
2019-05-21T14:21:45.770Z,17.8
2019-05-21T14:22:47.637Z,18.1
2019-05-21T14:23:49.515Z,18.3
2019-05-21T14:24:51.400Z,17.4
2019-05-21T14:25:53.273Z,17.9
2019-05-21T14:26:55.150Z,18.6
2019-05-21T14:27:57.024Z,18.2
2019-05-21T14:28:58.897Z,17.3
2019-05-21T14:30:00.778Z,17.4
2019-05-21T14:31:02.674Z,17.7
2019-05-21T14:32:04.552Z,17.4
2019-05-21T14:33:06.432Z,17.8
2019-05-21T14:34:08.334Z,17.8
2019-05-21T14:35:10.222Z,18.2
2019-05-21T14:36:12.294Z,18.2
2019-05-21T14:37:13.891Z,17.6
2019-05-21T14:38:15.764Z,17.8
2019-05-21T14:39:17.637Z,17.7
2019-05-21T14:40:33.570Z,16.9
2019-05-21T14:41:34.892Z,16.7
2019-05-21T14:42:36.760Z,17.2
2019-05-21T14:43:38.633Z,17.8
2019-05-21T14:44:40.539Z,17.9
2019-05-21T14:45:42.399Z,18.8
2019-05-21T14:46:43.457Z,17.8
2019-05-21T14:47:45.038Z,18.8
2019-05-21T14:48:46.908Z,19.2
2019-05-21T14:49:48.787Z,19.6
2019-05-21T14:50:50.670Z,18.8
2019-05-21T14:51:51.978Z,17.1
2019-05-21T14:52:53.972Z,17.5
2019-05-21T14:53:55.565Z,18.4
2019-05-21T14:54:57.563Z,18.9
2019-05-21T14:55:59.435Z,18
2019-05-21T14:57:01.309Z,18.9
2019-05-21T14:58:03.178Z,17.6
2019-05-21T14:59:05.051Z,18.2
2019-05-21T15:00:06.919Z,18.2
2019-05-21T15:01:08.793Z,19.5
2019-05-21T15:02:10.669Z,18.4
2019-05-21T15:03:30.073Z,19.1
2019-05-21T15:04:32.966Z,18.3
2019-05-21T15:05:34.931Z,18.9
2019-05-21T15:06:36.889Z,18.5
2019-05-21T15:07:38.756Z,19.7
2019-05-21T15:08:40.687Z,19.9
2019-05-21T15:09:42.577Z,20.2
2019-05-21T15:10:50.771Z,20
2019-05-21T15:11:52.355Z,21.1
2019-05-21T15:12:54.226Z,19.9
2019-05-21T15:13:55.540Z,20.8
2019-05-21T15:14:57.417Z,20.6
2019-05-21T15:15:59.286Z,21.6
2019-05-21T15:17:01.167Z,21.9
2019-05-21T15:18:02.798Z,21.4
2019-05-21T15:19:04.834Z,22
2019-05-21T15:20:06.733Z,21.6
2019-05-21T15:21:08.871Z,23.2
2019-05-21T15:22:10.492Z,22.6
2019-05-21T15:23:12.367Z,22.9
2019-05-21T15:24:15.276Z,21.9
2019-05-21T15:25:17.224Z,22.4
2019-05-21T15:26:19.153Z,23.3
2019-05-21T15:27:20.752Z,22.8
2019-05-21T15:28:22.655Z,21.7
2019-05-21T15:29:24.244Z,21.9
2019-05-21T15:30:26.117Z,22.6
2019-05-21T15:31:28.020Z,21.4
2019-05-21T15:32:31.917Z,22.8
2019-05-21T15:33:33.535Z,21.9
2019-05-21T15:34:35.419Z,22.5
2019-05-21T15:35:37.296Z,22
2019-05-21T15:36:39.176Z,22.1
2019-05-21T15:37:45.434Z,21
2019-05-21T15:38:52.458Z,22.1
2019-05-21T15:39:54.331Z,21.6
2019-05-21T15:41:13.694Z,22
2019-05-21T15:42:15.313Z,22.2
2019-05-21T15:43:17.196Z,22.4
2019-05-21T15:44:19.085Z,22.4
2019-05-21T15:45:20.961Z,21.6
2019-05-21T15:46:22.820Z,21.9
2019-05-21T15:47:24.694Z,23.4
2019-05-21T15:48:28.256Z,23.5
2019-05-21T15:49:38.304Z,26.3
2019-05-21T15:50:40.175Z,27
2019-05-21T15:51:42.050Z,28.1
2019-05-21T15:52:43.648Z,28.8
2019-05-21T15:53:45.520Z,28.7
2019-05-21T15:55:07.612Z,30.9
2019-05-21T15:56:09.524Z,28.2
2019-05-21T15:57:12.375Z,28.5
2019-05-21T15:58:13.957Z,27.5
2019-05-21T15:59:15.829Z,29.5
2019-05-21T16:00:17.700Z,29.5
2019-05-21T16:01:19.308Z,29.3
2019-05-21T16:02:21.212Z,28.8
2019-05-21T16:03:23.085Z,30
2019-05-21T16:04:24.663Z,29.7
2019-05-21T16:05:26.550Z,29.2
2019-05-21T16:06:28.422Z,30.3
2019-05-21T16:07:30.023Z,28.4
2019-05-21T16:08:31.915Z,27.2
2019-05-21T16:09:33.488Z,30.1
2019-05-21T16:10:35.360Z,30.1
2019-05-21T16:11:37.230Z,29.1
2019-05-21T16:12:39.100Z,28.1
2019-05-21T16:13:40.485Z,28.1
2019-05-21T16:14:42.363Z,26.9
2019-05-21T16:15:44.238Z,27.8
2019-05-21T16:16:46.115Z,27.1
2019-05-21T16:17:47.993Z,28.1
2019-05-21T16:18:49.875Z,26.6
2019-05-21T16:19:51.730Z,27.1
2019-05-21T16:20:53.601Z,28.8
2019-05-21T16:21:55.474Z,28.8
2019-05-21T16:22:57.487Z,27.5
2019-05-21T16:23:59.360Z,26.7
2019-05-21T16:25:01.015Z,26.5
2019-05-21T16:26:02.828Z,27
2019-05-21T16:27:04.711Z,28
2019-05-21T16:28:06.575Z,28.8
2019-05-21T16:29:08.441Z,26.4
2019-05-21T16:30:10.313Z,26.7
2019-05-21T16:31:12.190Z,26.5
2019-05-21T16:32:14.060Z,26.7
2019-05-21T16:33:15.957Z,26.4
2019-05-21T16:34:17.826Z,28.7
2019-05-21T16:35:19.701Z,27.9
2019-05-21T16:36:21.351Z,27
2019-05-21T16:37:22.957Z,27.5
2019-05-21T16:38:24.828Z,26.5
2019-05-21T16:39:26.734Z,28.7
2019-05-21T16:40:28.628Z,27.8
2019-05-21T16:41:46.497Z,28.4
2019-05-21T16:42:48.367Z,28.9
2019-05-21T16:43:50.239Z,27.9
2019-05-21T16:44:52.112Z,30.3
2019-05-21T16:45:53.991Z,29.7
2019-05-21T16:46:55.916Z,28.2
2019-05-21T16:47:57.785Z,27.8
2019-05-21T16:48:59.655Z,28.6
2019-05-21T16:50:01.527Z,30.3
2019-05-21T16:51:03.109Z,28.4
2019-05-21T16:52:05.006Z,30
2019-05-21T16:53:06.874Z,29
2019-05-21T16:54:08.745Z,29.6
2019-05-21T16:55:10.617Z,29.8
2019-05-21T16:56:12.490Z,31.2
2019-05-21T16:57:14.512Z,31.1
2019-05-21T16:58:16.129Z,31.1
2019-05-21T16:59:18.007Z,30.8
2019-05-21T17:00:19.591Z,30.7
2019-05-21T17:01:21.464Z,29.8
2019-05-21T17:02:23.338Z,31.3
2019-05-21T17:03:25.038Z,31.7
2019-05-21T17:04:26.907Z,32.1
2019-05-21T17:05:28.782Z,31.3
2019-05-21T17:06:30.790Z,32.5
2019-05-21T17:07:32.384Z,31.8
2019-05-21T17:08:34.258Z,31.8
2019-05-21T17:09:36.137Z,30.9
2019-05-21T17:10:38.002Z,31.7
2019-05-21T17:11:39.875Z,31.8
2019-05-21T17:12:41.745Z,32.3
2019-05-21T17:13:43.618Z,31.4
2019-05-21T17:14:45.489Z,31.5
2019-05-21T17:15:47.359Z,31.4
2019-05-21T17:16:48.937Z,33.1
2019-05-21T17:17:50.810Z,31.4
2019-05-21T17:18:52.683Z,32.7
2019-05-21T17:19:54.593Z,33.5
2019-05-21T17:20:56.477Z,33.2
2019-05-21T17:21:58.347Z,33.4
2019-05-21T17:23:00.217Z,34.7
2019-05-21T17:24:02.088Z,33.7
2019-05-21T17:25:03.961Z,32.4
2019-05-21T17:26:05.841Z,33.5
2019-05-21T17:27:07.437Z,35.4
2019-05-21T17:28:09.301Z,32.5
2019-05-21T17:29:11.171Z,33.2
2019-05-21T17:30:13.044Z,32.6
2019-05-21T17:31:14.661Z,33.1
2019-05-21T17:32:16.546Z,32.4
2019-05-21T17:33:18.152Z,33.3
2019-05-21T17:34:20.026Z,32.2
2019-05-21T17:35:21.900Z,35
2019-05-21T17:36:23.771Z,34.3
2019-05-21T17:37:25.647Z,32.6
2019-05-21T17:38:27.525Z,33.6
2019-05-21T17:39:29.393Z,32.8
2019-05-21T17:40:31.265Z,32.5
2019-05-21T17:41:33.136Z,33
2019-05-21T17:42:35.052Z,34.3
2019-05-21T17:43:36.927Z,32.7
2019-05-21T17:44:38.812Z,33.3
2019-05-21T17:45:40.682Z,32.4
2019-05-21T17:46:42.556Z,32.2
2019-05-21T17:47:44.427Z,33.1
2019-05-21T17:48:46.300Z,33.5
2019-05-21T17:49:48.168Z,34.4
2019-05-21T17:50:50.042Z,32.3
2019-05-21T17:51:51.910Z,33.7
2019-05-21T17:52:53.793Z,31.9
2019-05-21T17:53:55.926Z,33.5
2019-05-21T17:54:58.729Z,33
2019-05-21T17:56:00.595Z,33.6
2019-05-21T17:57:02.466Z,33.6
2019-05-21T17:58:04.341Z,33.8
2019-05-21T17:59:06.225Z,35.2
2019-05-21T18:00:07.863Z,34.1
2019-05-21T18:01:09.733Z,35.7
2019-05-21T18:02:11.604Z,34.5
2019-05-21T18:03:13.472Z,32.8
2019-05-21T18:04:15.343Z,32.6
2019-05-21T18:05:16.674Z,34.3
2019-05-21T18:06:18.370Z,34.1
2019-05-21T18:07:20.392Z,33
2019-05-21T18:08:22.261Z,31.6
2019-05-21T18:09:24.129Z,32.8
2019-05-21T18:10:26.000Z,31.5
2019-05-21T18:11:27.870Z,33.7
2019-05-21T18:12:33.687Z,31.9
2019-05-21T18:13:35.278Z,31.7
2019-05-21T18:14:37.152Z,32.9
2019-05-21T18:15:39.020Z,33.8
2019-05-21T18:16:40.892Z,33.2
2019-05-21T18:17:42.765Z,33.5
2019-05-21T18:18:44.636Z,32.8
2019-05-21T18:19:46.516Z,32.5
2019-05-21T18:20:48.382Z,33.6
2019-05-21T18:21:49.686Z,32.8
2019-05-21T18:22:51.777Z,35.6
2019-05-21T18:23:53.681Z,34